createdAt,value
2019-06-25T00:00:59.231Z,24.80
2019-06-25T00:03:32.050Z,24.70
2019-06-25T00:06:03.613Z,24.70
2019-06-25T00:08:35.407Z,24.70
2019-06-25T00:11:07.893Z,24.70
2019-06-25T00:13:39.841Z,24.70
2019-06-25T00:16:11.653Z,24.60
2019-06-25T00:18:43.748Z,24.60
2019-06-25T00:21:15.482Z,24.50
2019-06-25T00:23:47.299Z,24.50
2019-06-25T00:26:19.358Z,24.50
2019-06-25T00:28:52.391Z,24.50
2019-06-25T00:31:23.760Z,24.50
2019-06-25T00:33:55.593Z,24.50
2019-06-25T00:36:28.139Z,24.60
2019-06-25T00:38:59.250Z,24.60
2019-06-25T00:41:31.768Z,24.60
2019-06-25T00:44:04.072Z,24.50
2019-06-25T00:46:36.421Z,24.40
2019-06-25T00:49:09.221Z,24.40
2019-06-25T00:51:41.340Z,24.50
2019-06-25T00:54:14.377Z,24.50
2019-06-25T00:56:45.426Z,24.40
2019-06-25T00:59:18.502Z,24.30
2019-06-25T01:01:53.186Z,24.30
2019-06-25T01:04:25.216Z,24.20
2019-06-25T01:06:57.097Z,24.20
2019-06-25T01:09:29.328Z,24.20
2019-06-25T01:12:00.664Z,24.10
2019-06-25T01:14:32.431Z,24.10
2019-06-25T01:17:03.863Z,24.00
2019-06-25T01:19:35.546Z,24.00
2019-06-25T01:22:06.610Z,24.00
2019-06-25T01:24:38.207Z,24.00
2019-06-25T01:27:11.263Z,24.00
2019-06-25T01:29:43.031Z,24.00
2019-06-25T01:32:15.858Z,23.90
2019-06-25T01:34:48.453Z,24.00
2019-06-25T01:37:19.601Z,23.90
2019-06-25T01:39:52.066Z,23.90
2019-06-25T01:42:24.554Z,23.80
2019-06-25T01:44:56.998Z,23.80
2019-06-25T01:47:29.021Z,23.70
2019-06-25T01:50:01.510Z,23.70
2019-06-25T01:52:33.920Z,23.60
2019-06-25T01:55:07.086Z,23.60
2019-06-25T01:57:39.006Z,23.50
2019-06-25T02:00:11.397Z,23.60
2019-06-25T02:02:43.979Z,23.50
2019-06-25T02:05:16.595Z,23.50
2019-06-25T02:07:48.103Z,23.50
2019-06-25T02:10:22.966Z,23.40
2019-06-25T02:12:55.390Z,23.40
2019-06-25T02:15:27.726Z,23.40
2019-06-25T02:18:00.783Z,23.30
2019-06-25T02:20:34.650Z,23.20
2019-06-25T02:23:07.429Z,23.10
2019-06-25T02:25:39.798Z,23.10
2019-06-25T02:28:11.810Z,23.10
2019-06-25T02:31:01.350Z,23.00
2019-06-25T02:33:17.866Z,23.00
2019-06-25T02:35:49.011Z,23.10
2019-06-25T02:38:22.309Z,23.10
2019-06-25T02:40:53.681Z,23.10
2019-06-25T02:43:25.746Z,23.00
2019-06-25T02:45:57.789Z,23.00
2019-06-25T02:48:29.354Z,22.90
2019-06-25T02:51:01.148Z,22.90
2019-06-25T02:53:32.980Z,22.90
2019-06-25T02:56:05.046Z,22.90
2019-06-25T02:58:37.961Z,22.90
2019-06-25T03:01:27.059Z,22.90
2019-06-25T03:03:44.304Z,22.90
2019-06-25T03:06:17.635Z,22.90
2019-06-25T03:08:48.926Z,22.80
2019-06-25T03:11:20.838Z,22.70
2019-06-25T03:13:52.560Z,22.70
2019-06-25T03:16:24.391Z,22.70
2019-06-25T03:18:56.013Z,22.70
2019-06-25T03:21:28.240Z,22.70
2019-06-25T03:23:59.694Z,22.60
2019-06-25T03:26:31.856Z,22.70
2019-06-25T03:29:04.479Z,22.70
2019-06-25T03:32:02.794Z,22.70
2019-06-25T03:34:10.118Z,22.70
2019-06-25T03:36:42.184Z,22.70
2019-06-25T03:39:13.974Z,22.70
2019-06-25T03:41:46.790Z,22.60
2019-06-25T03:44:18.129Z,22.70
2019-06-25T03:46:50.475Z,22.60
2019-06-25T03:49:22.263Z,22.60
2019-06-25T03:51:56.403Z,22.70
2019-06-25T03:54:29.408Z,22.70
2019-06-25T03:57:01.542Z,22.70
2019-06-25T03:59:33.332Z,22.60
2019-06-25T04:02:16.800Z,22.70
2019-06-25T04:04:38.974Z,22.70
2019-06-25T04:07:11.472Z,22.70
2019-06-25T04:09:44.386Z,22.60
2019-06-25T04:12:16.964Z,22.60
2019-06-25T04:14:49.293Z,22.60
2019-06-25T04:17:21.353Z,22.60
2019-06-25T04:19:52.671Z,22.60
2019-06-25T04:22:24.184Z,22.60
2019-06-25T04:24:56.806Z,22.70
2019-06-25T04:27:29.095Z,22.70
2019-06-25T04:30:00.757Z,22.70
2019-06-25T04:32:34.073Z,22.70
2019-06-25T04:35:05.627Z,22.70
2019-06-25T04:37:37.098Z,22.70
2019-06-25T04:40:09.845Z,22.60
2019-06-25T04:42:41.754Z,22.60
2019-06-25T04:45:13.796Z,22.60
2019-06-25T04:47:45.830Z,22.70
2019-06-25T04:50:20.756Z,22.70
2019-06-25T04:52:52.855Z,22.70
2019-06-25T04:55:24.130Z,22.70
2019-06-25T04:57:56.521Z,22.60
2019-06-25T05:00:29.018Z,22.60
2019-06-25T05:03:00.674Z,22.60
2019-06-25T05:05:32.906Z,22.60
2019-06-25T05:08:05.745Z,22.60
2019-06-25T05:10:37.280Z,22.70
2019-06-25T05:13:09.360Z,22.80
2019-06-25T05:15:42.474Z,22.90
2019-06-25T05:18:15.557Z,22.90
2019-06-25T05:20:47.875Z,23.10
2019-06-25T05:23:20.422Z,23.20
2019-06-25T05:25:53.250Z,23.30
2019-06-25T05:28:25.319Z,23.30
2019-06-25T05:30:57.961Z,23.50
2019-06-25T05:33:29.699Z,23.60
2019-06-25T05:36:09.915Z,23.60
2019-06-25T05:38:42.294Z,23.70
2019-06-25T05:41:15.156Z,23.80
2019-06-25T05:43:47.181Z,23.90
2019-06-25T05:46:19.124Z,24.00
2019-06-25T05:48:50.378Z,24.10
2019-06-25T05:51:22.644Z,24.10
2019-06-25T05:53:55.435Z,24.00
2019-06-25T05:56:26.742Z,24.10
2019-06-25T05:58:58.570Z,24.20
2019-06-25T06:01:29.873Z,24.30
2019-06-25T06:04:02.068Z,24.40
2019-06-25T06:06:33.727Z,24.40
2019-06-25T06:09:07.413Z,24.40
2019-06-25T06:11:39.389Z,24.50
2019-06-25T06:14:11.741Z,24.70
2019-06-25T06:16:43.425Z,24.80
2019-06-25T06:19:15.643Z,24.90
2019-06-25T06:21:47.207Z,25.00
2019-06-25T06:24:21.943Z,25.10
2019-06-25T06:26:53.873Z,25.00
2019-06-25T06:29:25.738Z,25.00
2019-06-25T06:31:58.957Z,25.00
2019-06-25T06:34:31.037Z,25.20
2019-06-25T06:37:03.505Z,25.30
2019-06-25T06:39:36.353Z,25.30
2019-06-25T06:42:08.519Z,25.30
2019-06-25T06:44:40.997Z,25.30
2019-06-25T06:47:13.499Z,25.40
2019-06-25T06:49:45.491Z,25.60
2019-06-25T06:52:16.540Z,25.60
2019-06-25T06:54:48.260Z,25.80
2019-06-25T06:57:20.912Z,25.80
2019-06-25T06:59:54.065Z,25.90
2019-06-25T07:02:25.565Z,26.00
2019-06-25T07:04:58.127Z,26.00
2019-06-25T07:07:30.156Z,26.20
2019-06-25T07:10:03.034Z,26.20
2019-06-25T07:12:35.131Z,26.30
2019-06-25T07:15:07.547Z,26.40
2019-06-25T07:17:39.672Z,26.40
2019-06-25T07:20:12.076Z,26.50
2019-06-25T07:22:44.385Z,26.50
2019-06-25T07:25:16.642Z,26.40
2019-06-25T07:27:48.557Z,26.40
2019-06-25T07:30:22.142Z,26.20
2019-06-25T07:32:55.483Z,26.10
2019-06-25T07:35:28.272Z,26.10
2019-06-25T07:37:59.584Z,26.20
2019-06-25T07:40:32.002Z,26.20
2019-06-25T07:43:04.276Z,26.00
2019-06-25T07:45:37.363Z,26.00
2019-06-25T07:48:09.797Z,26.00
2019-06-25T07:50:41.704Z,26.00
2019-06-25T07:53:13.470Z,26.00
2019-06-25T07:55:45.916Z,26.10
2019-06-25T07:58:18.178Z,26.20
2019-06-25T08:00:50.733Z,26.30
2019-06-25T08:03:22.819Z,26.20
2019-06-25T08:05:55.707Z,26.30
2019-06-25T08:08:27.452Z,26.30
2019-06-25T08:11:00.034Z,26.40
2019-06-25T08:13:32.352Z,26.40
2019-06-25T08:16:04.731Z,26.40
2019-06-25T08:18:36.506Z,26.30
2019-06-25T08:21:08.847Z,26.40
2019-06-25T08:23:40.861Z,26.30
2019-06-25T08:26:12.493Z,26.30
2019-06-25T08:28:45.000Z,26.30
2019-06-25T08:31:16.996Z,26.40
2019-06-25T08:33:49.408Z,26.30
2019-06-25T08:36:21.695Z,26.30
2019-06-25T08:38:54.227Z,26.20
2019-06-25T08:41:27.599Z,26.20
2019-06-25T08:43:59.943Z,26.30
2019-06-25T08:46:32.137Z,26.40
2019-06-25T08:49:04.061Z,26.50
2019-06-25T08:51:35.801Z,26.40
2019-06-25T08:54:07.454Z,26.50
2019-06-25T08:56:39.270Z,26.60
2019-06-25T08:59:11.090Z,26.60
2019-06-25T09:01:43.908Z,26.60
2019-06-25T09:04:16.873Z,26.70
2019-06-25T09:06:49.545Z,26.80
2019-06-25T09:09:22.636Z,26.90
2019-06-25T09:11:54.225Z,27.00
2019-06-25T09:14:27.579Z,27.00
2019-06-25T09:17:01.147Z,27.10
2019-06-25T09:19:46.251Z,27.20
2019-06-25T09:22:06.746Z,27.20
2019-06-25T09:24:38.377Z,27.40
2019-06-25T09:27:11.615Z,27.40
2019-06-25T09:29:45.370Z,27.50
2019-06-25T09:32:17.846Z,27.50
2019-06-25T09:34:50.710Z,27.60
2019-06-25T09:37:22.601Z,27.60
2019-06-25T09:39:51.612Z,27.60
2019-06-25T09:42:20.795Z,27.50
2019-06-25T09:44:49.758Z,27.30
2019-06-25T09:47:21.838Z,27.30
2019-06-25T09:49:54.452Z,27.30
2019-06-25T09:52:26.516Z,27.30
2019-06-25T09:54:59.260Z,27.30
2019-06-25T09:57:32.354Z,27.30
2019-06-25T10:00:04.879Z,27.50
2019-06-25T10:02:37.048Z,27.70
2019-06-25T10:05:10.386Z,27.80
2019-06-25T10:07:41.923Z,27.90
2019-06-25T10:10:14.565Z,28.10
2019-06-25T10:12:46.337Z,28.00
2019-06-25T10:15:19.225Z,28.00
2019-06-25T10:17:51.750Z,28.00
2019-06-25T10:20:23.800Z,28.20
2019-06-25T10:22:56.376Z,28.50
2019-06-25T10:25:28.600Z,28.70
2019-06-25T10:28:00.780Z,28.90
2019-06-25T10:30:38.710Z,28.90
2019-06-25T10:33:10.790Z,28.90
2019-06-25T10:35:47.307Z,29.20
2019-06-25T10:38:15.923Z,29.40
2019-06-25T10:40:47.810Z,29.30
2019-06-25T10:43:20.309Z,29.40
2019-06-25T10:45:52.416Z,29.50
2019-06-25T10:48:26.758Z,29.80
2019-06-25T10:50:58.397Z,29.80
2019-06-25T10:53:31.665Z,30.00
2019-06-25T10:56:04.283Z,30.00
2019-06-25T10:58:36.656Z,29.80
2019-06-25T11:01:10.836Z,29.80
2019-06-25T11:03:43.658Z,29.90
2019-06-25T11:06:15.853Z,30.00
2019-06-25T11:08:48.183Z,30.20
2019-06-25T11:11:20.224Z,30.20
2019-06-25T11:14:07.318Z,30.20
2019-06-25T11:16:26.314Z,30.30
2019-06-25T11:18:58.942Z,30.30
2019-06-25T11:21:32.615Z,30.30
2019-06-25T11:24:04.664Z,30.50
2019-06-25T11:26:37.557Z,30.90
2019-06-25T11:29:09.823Z,30.80
2019-06-25T11:31:42.036Z,30.70
2019-06-25T11:34:14.075Z,30.80
2019-06-25T11:36:47.565Z,30.90
2019-06-25T11:39:20.630Z,31.10
2019-06-25T11:41:52.562Z,31.10
2019-06-25T11:44:25.518Z,31.10
2019-06-25T11:46:58.086Z,31.20
2019-06-25T11:49:29.882Z,31.20
2019-06-25T11:52:02.712Z,31.00
2019-06-25T11:54:35.442Z,31.10
2019-06-25T11:57:07.884Z,31.40
2019-06-25T11:59:40.748Z,31.70
2019-06-25T12:02:13.573Z,31.90
2019-06-25T12:04:46.763Z,31.90
2019-06-25T12:07:19.627Z,32.20
2019-06-25T12:09:52.603Z,32.20
2019-06-25T12:12:25.644Z,32.30
2019-06-25T12:14:58.287Z,32.20
2019-06-25T12:17:30.833Z,32.20
2019-06-25T12:20:03.386Z,32.30
2019-06-25T12:22:35.983Z,32.40
2019-06-25T12:25:08.562Z,32.30
2019-06-25T12:27:40.865Z,32.30
2019-06-25T12:30:13.956Z,32.30
2019-06-25T12:32:45.883Z,32.40
2019-06-25T12:35:18.963Z,32.50
2019-06-25T12:37:51.463Z,32.70
2019-06-25T12:40:23.353Z,32.90
2019-06-25T12:42:56.244Z,32.90
2019-06-25T12:45:32.897Z,32.80
2019-06-25T12:48:03.270Z,33.00
2019-06-25T12:50:36.082Z,33.20
2019-06-25T12:53:08.747Z,33.40
2019-06-25T12:55:41.359Z,33.40
2019-06-25T12:58:13.411Z,33.40
2019-06-25T13:00:45.911Z,33.60
2019-06-25T13:03:17.748Z,33.70
2019-06-25T13:05:50.321Z,33.70
2019-06-25T13:08:22.109Z,33.70
2019-06-25T13:10:53.656Z,33.60
2019-06-25T13:13:25.441Z,33.60
2019-06-25T13:15:57.347Z,33.60
2019-06-25T13:18:29.827Z,33.50
2019-06-25T13:21:02.152Z,33.50
2019-06-25T13:23:34.727Z,33.70
2019-06-25T13:26:06.872Z,33.70
2019-06-25T13:28:39.986Z,33.90
2019-06-25T13:31:11.975Z,34.10
2019-06-25T13:33:43.742Z,34.30
2019-06-25T13:36:17.726Z,34.50
2019-06-25T13:38:50.202Z,34.70
2019-06-25T13:41:22.774Z,34.80
2019-06-25T13:43:54.882Z,34.90
2019-06-25T13:46:27.432Z,34.80
2019-06-25T13:49:00.597Z,34.70
2019-06-25T13:51:33.137Z,34.70
2019-06-25T13:54:04.925Z,35.00
2019-06-25T13:56:36.963Z,35.20
2019-06-25T13:59:09.034Z,35.30
2019-06-25T14:01:41.611Z,35.50
2019-06-25T14:04:13.669Z,35.50
2019-06-25T14:06:46.477Z,35.40
2019-06-25T14:09:19.070Z,35.60
2019-06-25T14:11:51.849Z,35.60
2019-06-25T14:14:24.758Z,35.70
2019-06-25T14:16:57.070Z,35.80
2019-06-25T14:19:28.652Z,35.90
2019-06-25T14:22:01.212Z,36.10
2019-06-25T14:24:34.148Z,36.30
2019-06-25T14:27:06.678Z,36.30
2019-06-25T14:29:40.269Z,36.30
2019-06-25T14:32:12.267Z,36.20
2019-06-25T14:34:44.933Z,35.90
2019-06-25T14:37:17.972Z,35.70
2019-06-25T14:39:51.547Z,35.60
2019-06-25T14:42:24.141Z,35.50
2019-06-25T14:44:55.962Z,35.50
2019-06-25T14:47:29.093Z,35.30
2019-06-25T14:50:01.130Z,35.30
2019-06-25T14:52:33.837Z,35.50
2019-06-25T14:55:05.999Z,35.60
2019-06-25T14:57:37.450Z,35.70
2019-06-25T15:00:10.121Z,35.80
2019-06-25T15:02:44.239Z,35.80
2019-06-25T15:05:16.540Z,35.80
2019-06-25T15:07:48.928Z,35.70
2019-06-25T15:10:22.411Z,35.80
2019-06-25T15:12:55.038Z,35.60
2019-06-25T15:15:32.695Z,35.50
2019-06-25T15:18:02.745Z,35.50
2019-06-25T15:20:35.155Z,35.40
2019-06-25T15:23:07.406Z,35.30
2019-06-25T15:25:39.236Z,35.20
2019-06-25T15:28:11.763Z,35.00
2019-06-25T15:30:43.874Z,35.00
2019-06-25T15:33:16.060Z,34.90
2019-06-25T15:35:48.245Z,34.70
2019-06-25T15:38:20.825Z,34.50
2019-06-25T15:40:52.972Z,34.40
2019-06-25T15:43:28.805Z,34.30
2019-06-25T15:45:59.866Z,34.30
2019-06-25T15:48:31.901Z,34.10
2019-06-25T15:51:03.465Z,34.00
2019-06-25T15:53:36.786Z,33.90
2019-06-25T15:56:09.533Z,33.80
2019-06-25T15:58:42.796Z,33.80
2019-06-25T16:01:15.823Z,33.70
2019-06-25T16:03:47.923Z,33.60
2019-06-25T16:06:20.386Z,33.50
2019-06-25T16:09:02.574Z,33.40
2019-06-25T16:11:26.615Z,33.20
2019-06-25T16:13:58.980Z,33.20
2019-06-25T16:16:31.261Z,33.10
2019-06-25T16:19:04.606Z,33.00
2019-06-25T16:21:36.430Z,32.90
2019-06-25T16:24:09.707Z,32.80
2019-06-25T16:26:42.612Z,32.80
2019-06-25T16:29:14.786Z,32.70
2019-06-25T16:31:46.918Z,32.70
2019-06-25T16:34:20.079Z,32.60
2019-06-25T16:36:52.144Z,32.70
2019-06-25T16:39:24.936Z,32.60
2019-06-25T16:41:57.014Z,32.50
2019-06-25T16:44:29.686Z,32.50
2019-06-25T16:47:02.434Z,32.50
2019-06-25T16:49:35.275Z,32.50
2019-06-25T16:52:08.245Z,32.50
2019-06-25T16:54:40.473Z,32.50
2019-06-25T16:57:12.779Z,32.50
2019-06-25T16:59:44.672Z,32.40
2019-06-25T17:02:24.314Z,32.50
2019-06-25T17:04:50.511Z,32.50
2019-06-25T17:07:22.502Z,32.40
2019-06-25T17:09:54.668Z,32.30
2019-06-25T17:12:27.697Z,32.30
2019-06-25T17:15:00.178Z,32.20
2019-06-25T17:17:32.199Z,32.30
2019-06-25T17:20:04.424Z,32.20
2019-06-25T17:22:36.788Z,32.10
2019-06-25T17:25:09.558Z,32.20
2019-06-25T17:27:49.923Z,32.20
2019-06-25T17:30:16.270Z,32.20
2019-06-25T17:32:48.354Z,32.20
2019-06-25T17:35:20.892Z,32.10
2019-06-25T17:37:53.776Z,32.20
2019-06-25T17:40:27.090Z,32.10
2019-06-25T17:42:59.654Z,32.10
2019-06-25T17:45:31.778Z,32.10
2019-06-25T17:48:04.314Z,32.10
2019-06-25T17:50:36.443Z,32.10
2019-06-25T17:53:09.035Z,32.00
2019-06-25T17:55:44.851Z,32.00
2019-06-25T17:58:17.190Z,31.90
2019-06-25T18:00:50.694Z,31.90
2019-06-25T18:03:23.019Z,31.80
2019-06-25T18:05:55.479Z,31.80
2019-06-25T18:08:28.249Z,31.80
2019-06-25T18:11:01.719Z,31.70
2019-06-25T18:13:35.339Z,31.70
2019-06-25T18:16:08.549Z,31.70
2019-06-25T18:18:41.104Z,31.70
2019-06-25T18:21:13.459Z,31.60
2019-06-25T18:23:45.828Z,31.60
2019-06-25T18:26:18.068Z,31.70
2019-06-25T18:28:53.643Z,31.80
2019-06-25T18:31:24.265Z,32.00
2019-06-25T18:33:56.623Z,32.00
2019-06-25T18:36:28.998Z,31.90
2019-06-25T18:39:01.509Z,31.80
2019-06-25T18:41:34.039Z,31.80
2019-06-25T18:44:06.437Z,31.60
2019-06-25T18:46:38.942Z,31.50
2019-06-25T18:49:11.538Z,31.50
2019-06-25T18:51:43.862Z,31.30
2019-06-25T18:54:15.418Z,31.10
2019-06-25T18:56:47.914Z,31.00
2019-06-25T18:59:20.308Z,30.90
2019-06-25T19:01:53.144Z,30.70
2019-06-25T19:04:25.794Z,30.60
2019-06-25T19:06:58.493Z,30.50
2019-06-25T19:09:31.376Z,30.50
2019-06-25T19:12:03.962Z,30.40
2019-06-25T19:14:36.618Z,30.30
2019-06-25T19:17:09.377Z,30.30
2019-06-25T19:19:42.490Z,30.20
2019-06-25T19:22:14.816Z,30.20
2019-06-25T19:24:46.950Z,30.10
2019-06-25T19:27:19.153Z,30.00
2019-06-25T19:29:51.916Z,30.00
2019-06-25T19:32:24.101Z,29.90
2019-06-25T19:34:57.595Z,29.80
2019-06-25T19:37:29.511Z,29.80
2019-06-25T19:40:02.375Z,29.70
2019-06-25T19:42:34.881Z,29.60
2019-06-25T19:45:07.331Z,29.50
2019-06-25T19:47:49.950Z,29.50
2019-06-25T19:50:17.234Z,29.50
2019-06-25T19:52:47.806Z,29.50
2019-06-25T19:55:20.211Z,29.40
2019-06-25T19:57:52.953Z,29.30
2019-06-25T20:00:26.257Z,29.30
2019-06-25T20:02:58.500Z,29.20
2019-06-25T20:05:30.921Z,29.20
2019-06-25T20:08:04.269Z,29.20
2019-06-25T20:10:36.289Z,29.10
2019-06-25T20:13:09.951Z,28.90
2019-06-25T20:15:43.701Z,28.90
2019-06-25T20:18:17.300Z,28.90
2019-06-25T20:20:50.765Z,28.80
2019-06-25T20:23:24.266Z,28.80
2019-06-25T20:25:56.639Z,28.80
2019-06-25T20:28:28.461Z,28.80
2019-06-25T20:31:01.934Z,28.80
2019-06-25T20:33:35.913Z,28.70
2019-06-25T20:36:09.392Z,28.70
2019-06-25T20:38:41.825Z,28.70
2019-06-25T20:41:27.525Z,28.70
2019-06-25T20:43:47.483Z,28.60
2019-06-25T20:46:20.711Z,28.60
2019-06-25T20:48:53.706Z,28.60
2019-06-25T20:51:26.252Z,28.60
2019-06-25T20:53:59.270Z,28.50
2019-06-25T20:56:31.926Z,28.40
2019-06-25T20:59:05.040Z,28.40
2019-06-25T21:01:38.087Z,28.40
2019-06-25T21:04:09.520Z,28.40
2019-06-25T21:06:42.639Z,28.30
2019-06-25T21:09:15.853Z,28.20
2019-06-25T21:11:49.245Z,28.20
2019-06-25T21:14:22.000Z,28.10
2019-06-25T21:16:53.895Z,28.10
2019-06-25T21:19:39.064Z,28.10
2019-06-25T21:22:00.232Z,28.00
2019-06-25T21:24:32.350Z,28.00
2019-06-25T21:27:05.005Z,27.90
2019-06-25T21:29:37.739Z,27.90
2019-06-25T21:32:09.944Z,27.90
2019-06-25T21:34:42.441Z,27.90
2019-06-25T21:37:14.665Z,27.80
2019-06-25T21:39:47.171Z,27.80
2019-06-25T21:42:20.458Z,27.80
2019-06-25T21:44:52.700Z,27.70
2019-06-25T21:47:25.025Z,27.70
2019-06-25T21:49:57.576Z,27.60
2019-06-25T21:52:31.204Z,27.50
2019-06-25T21:55:04.011Z,27.40
2019-06-25T21:57:37.095Z,27.40
2019-06-25T22:00:11.126Z,27.40
2019-06-25T22:02:44.726Z,27.40
2019-06-25T22:05:16.791Z,27.30
2019-06-25T22:07:48.704Z,27.20
2019-06-25T22:10:23.017Z,27.20
2019-06-25T22:12:54.623Z,27.30
2019-06-25T22:15:26.951Z,27.30
2019-06-25T22:17:59.483Z,27.30
2019-06-25T22:20:32.086Z,27.20
2019-06-25T22:23:04.230Z,27.20
2019-06-25T22:25:37.555Z,27.20
2019-06-25T22:28:09.207Z,27.20
2019-06-25T22:30:42.187Z,27.20
2019-06-25T22:33:14.706Z,27.00
2019-06-25T22:35:46.591Z,26.90
2019-06-25T22:38:19.121Z,26.80
2019-06-25T22:40:51.656Z,26.70
2019-06-25T22:43:24.107Z,26.70
2019-06-25T22:45:57.350Z,26.70
2019-06-25T22:48:30.157Z,26.70
2019-06-25T22:51:03.276Z,26.70
2019-06-25T22:53:35.910Z,26.70
2019-06-25T22:56:07.899Z,26.70
2019-06-25T22:58:41.006Z,26.60
2019-06-25T23:01:13.203Z,26.50
2019-06-25T23:03:45.556Z,26.50
2019-06-25T23:06:17.736Z,26.50
2019-06-25T23:08:50.483Z,26.60
2019-06-25T23:11:23.012Z,26.60
2019-06-25T23:13:55.711Z,26.60
2019-06-25T23:16:27.582Z,26.60
2019-06-25T23:19:00.085Z,26.60
2019-06-25T23:21:33.429Z,26.60
2019-06-25T23:24:05.351Z,26.70
2019-06-25T23:26:37.672Z,26.80
2019-06-25T23:29:11.095Z,26.80
2019-06-25T23:31:43.456Z,26.80
2019-06-25T23:34:15.912Z,26.80
2019-06-25T23:36:47.586Z,26.80
2019-06-25T23:39:19.276Z,26.80
2019-06-25T23:41:52.116Z,26.90
2019-06-25T23:44:25.074Z,26.90
2019-06-25T23:46:56.926Z,26.90
2019-06-25T23:49:29.336Z,26.80
2019-06-25T23:52:01.565Z,26.60
2019-06-25T23:54:34.177Z,26.60
2019-06-25T23:57:07.111Z,26.50
2019-06-25T23:59:40.611Z,26.40
